KGCK/GCK METAR and TAF weather

Enter ICAO airport designator
Station Type Date Time Source
KGCK METAR 2020/07/11 16:54 UTC NOAA

KGCK 111654Z VRB05KT 10SM CLR 32/21 A3007 RMK AO2 SLP140 T03220206


Station Type Date Time Source
KGCK Decoded METAR 2020/07/11 16:54 UTC NOAA

GARDEN CITY REGIONAL AIRPORT, KS, United States (KGCK) 37-55N 100-43W 877M
Jul 11, 2020 - 12:54 PM EDT / 2020.07.11 1654 UTC
Wind: Variable at 6 MPH (5 KT):0
Visibility: 10 mile(s):0
Sky conditions: clear
Temperature: 90.0 F (32.2 C)
Heat index: 94.6 F (34.8 C):1
Dew Point: 69.1 F (20.6 C)
Relative Humidity: 50%
Pressure (altimeter): 30.07 in. Hg (1018 hPa)
ob: KGCK 111654Z VRB05KT 10SM CLR 32/21 A3007 RMK AO2 SLP140 T03220206
cycle: 17

Station Type Date Time Source
KGCK TAF 2020/07/11 18:22 UTC NOAA

TAF KGCK 111720Z 1118/1218 VRB06KT P6SM SKC
FM112200 03015KT P6SM SCT070
FM120600 06012KT P6SM SCT250
FM121200 10012KT P6SM SKC

Example: see airport list